Time;durP1;ratioP1;P1;durP2;ratioP2;P2;SDS_P1;SDS_P2;PMS_P1;PMS_P2;Temp;Humidity;BMP_temperature;BMP_pressure;BME280_temperature;BME280_humidity;BME280_pressure;Samples;Min_cycle;Max_cycle;Signal;HPM_P1;HPM_P2
2021/10/03 00:02:30;;;;;;;3.88;1.83;;;19.80;61.10;;;;;;20463598;28;20497;-59
2021/10/03 00:12:30;;;;;;;5.38;1.80;;;19.80;61.00;;;;;;20434390;29;20115;-59
2021/10/03 00:22:31;;;;;;;4.13;1.52;;;19.80;61.00;;;;;;20430722;29;20066;-60
2021/10/03 00:32:31;;;;;;;3.88;1.63;;;19.80;61.10;;;;;;20467318;28;20027;-58
2021/10/03 00:42:32;;;;;;;5.65;2.40;;;19.90;61.10;;;;;;20458279;28;20031;-59
2021/10/03 00:52:33;;;;;;;4.22;1.98;;;19.80;61.10;;;;;;20464235;28;20066;-59
2021/10/03 01:02:34;;;;;;;3.60;1.75;;;19.80;61.10;;;;;;20470409;28;20042;-58
2021/10/03 01:12:35;;;;;;;8.03;1.80;;;19.90;61.20;;;;;;20454610;28;20509;-58
2021/10/03 01:22:37;;;;;;;7.25;1.83;;;19.80;61.10;;;;;;20459323;28;20493;-59
2021/10/03 01:32:38;;;;;;;2.78;1.50;;;19.90;61.30;;;;;;20462416;28;20035;-58
2021/10/03 01:42:40;;;;;;;3.20;1.98;;;19.80;61.30;;;;;;20455105;28;20038;-59
2021/10/03 01:52:40;;;;;;;4.50;1.70;;;19.80;61.30;;;;;;20459941;28;20031;-58
2021/10/03 02:02:41;;;;;;;2.88;1.98;;;19.80;61.30;;;;;;20466061;28;20049;-59
2021/10/03 02:12:41;;;;;;;3.40;1.45;;;19.80;61.30;;;;;;20451308;28;20023;-59
2021/10/03 02:22:43;;;;;;;7.22;2.05;;;19.80;61.30;;;;;;20456283;29;20478;-58
2021/10/03 02:32:44;;;;;;;6.65;3.42;;;19.80;61.40;;;;;;20454553;29;20042;-55
2021/10/03 02:42:45;;;;;;;6.72;2.47;;;19.80;61.90;;;;;;20429481;29;20032;-56
2021/10/03 02:52:45;;;;;;;8.48;2.63;;;19.80;61.40;;;;;;20433162;29;20107;-57
2021/10/03 03:02:46;;;;;;;2.97;1.85;;;19.80;61.40;;;;;;20438119;29;20114;-59
2021/10/03 03:12:46;;;;;;;4.38;2.22;;;19.80;61.40;;;;;;20430229;29;20375;-57
2021/10/03 03:22:47;;;;;;;3.85;1.55;;;19.80;61.40;;;;;;20429457;29;20122;-57
2021/10/03 03:32:48;;;;;;;5.28;2.40;;;19.80;61.50;;;;;;20432231;29;20042;-58
2021/10/03 03:42:49;;;;;;;6.18;1.88;;;19.80;61.50;;;;;;20428099;29;20103;-57
2021/10/03 03:52:50;;;;;;;2.90;1.77;;;19.80;61.50;;;;;;20426964;28;20529;-56
2021/10/03 04:02:50;;;;;;;3.40;1.80;;;19.80;61.50;;;;;;20426053;29;20039;-58
2021/10/03 04:12:51;;;;;;;4.20;1.77;;;19.80;61.50;;;;;;20425700;29;20038;-57
2021/10/03 04:22:51;;;;;;;3.35;1.83;;;19.80;61.50;;;;;;20424950;29;20038;-59
2021/10/03 04:32:52;;;;;;;2.97;1.77;;;19.80;61.50;;;;;;20424869;29;20486;-58
2021/10/03 04:42:52;;;;;;;3.20;1.70;;;19.80;61.50;;;;;;20427179;29;20034;-54
2021/10/03 05:02:55;;;;;;;3.63;1.48;;;19.80;61.60;;;;;;20705658;23;20081;-65
2021/10/03 05:12:56;;;;;;;3.80;2.13;;;19.80;61.60;;;;;;20725529;28;20034;-64
2021/10/03 05:22:56;;;;;;;2.83;1.42;;;19.80;61.60;;;;;;20741186;28;20034;-64
2021/10/03 05:32:57;;;;;;;7.07;1.88;;;19.80;61.60;;;;;;20727521;28;20477;-65
2021/10/03 05:42:57;;;;;;;4.53;2.08;;;19.80;61.70;;;;;;20739585;28;20030;-64
2021/10/03 05:52:59;;;;;;;3.75;1.92;;;19.80;61.60;;;;;;20739134;28;20048;-64
2021/10/03 06:02:59;;;;;;;4.00;1.70;;;19.80;61.60;;;;;;20701535;28;20072;-65
2021/10/03 06:13:00;;;;;;;9.73;2.53;;;19.80;61.70;;;;;;20728473;28;20030;-65
2021/10/03 06:23:00;;;;;;;4.28;1.48;;;19.80;61.70;;;;;;20737320;28;20120;-64
2021/10/03 06:33:02;;;;;;;7.90;1.75;;;19.80;61.70;;;;;;20699568;28;20399;-65
2021/10/03 06:43:02;;;;;;;4.25;1.60;;;19.80;61.70;;;;;;20694180;28;20030;-64
2021/10/03 06:53:03;;;;;;;3.35;1.70;;;19.80;61.70;;;;;;20700437;28;20034;-64
2021/10/03 07:03:04;;;;;;;5.72;1.65;;;19.80;61.70;;;;;;20696644;28;20100;-65
2021/10/03 07:13:05;;;;;;;8.32;1.73;;;19.80;61.80;;;;;;20702994;28;20035;-65
2021/10/03 07:23:06;;;;;;;6.90;2.72;;;19.80;62.00;;;;;;20704323;28;20033;-65
2021/10/03 07:33:07;;;;;;;12.75;3.70;;;19.90;62.30;;;;;;20702633;28;20031;-64
2021/10/03 07:43:07;;;;;;;10.85;3.40;;;19.90;63.20;;;;;;20707267;28;20037;-66
2021/10/03 07:53:08;;;;;;;10.60;3.30;;;20.00;62.60;;;;;;20711463;28;20088;-64
2021/10/03 08:03:09;;;;;;;11.57;3.33;;;20.20;62.70;;;;;;20697798;28;20039;-64
2021/10/03 08:13:12;;;;;;;8.07;2.70;;;20.50;62.50;;;;;;20712513;28;20041;-64
2021/10/03 08:23:12;;;;;;;7.65;2.40;;;20.60;62.30;;;;;;20716464;28;20038;-63
2021/10/03 08:33:13;;;;;;;6.93;2.25;;;20.70;61.60;;;;;;20703669;28;20089;-63
2021/10/03 08:43:14;;;;;;;11.10;2.75;;;20.90;61.30;;;;;;20704247;28;20037;-62
2021/10/03 08:53:16;;;;;;;17.13;5.65;;;21.00;61.30;;;;;;20696540;28;20037;-61
2021/10/03 09:03:17;;;;;;;21.00;4.93;;;21.00;62.40;;;;;;20702494;28;20512;-60
2021/10/03 09:13:20;;;;;;;20.58;6.40;;;21.10;63.00;;;;;;20687318;28;20157;-62
2021/10/03 09:23:21;;;;;;;18.08;5.60;;;21.10;64.10;;;;;;20700664;28;20030;-62
2021/10/03 09:33:22;;;;;;;14.55;5.07;;;21.00;63.80;;;;;;20705162;28;20022;-63
2021/10/03 09:43:41;;;;;;;30.75;6.47;;;21.00;63.90;;;;;;20690667;28;20031;-64
2021/10/03 09:53:44;;;;;;;21.47;5.53;;;21.00;64.10;;;;;;20689081;28;20456;-65
2021/10/03 10:03:44;;;;;;;32.70;6.82;;;20.90;64.10;;;;;;20704297;28;20378;-65
2021/10/03 10:13:57;;;;;;;47.78;7.57;;;20.90;64.70;;;;;;20701792;28;20022;-63
2021/10/03 10:23:58;;;;;;;36.47;6.32;;;20.90;64.50;;;;;;20697680;28;20040;-63
2021/10/03 10:34:01;;;;;;;45.25;6.75;;;20.80;64.20;;;;;;20703887;28;20105;-63
2021/10/03 10:44:28;;;;;;;47.83;7.60;;;20.80;64.10;;;;;;20694090;28;20492;-64
2021/10/03 10:54:28;;;;;;;39.72;9.50;;;20.80;63.90;;;;;;20731774;28;20095;-63
2021/10/03 11:04:29;;;;;;;34.05;7.88;;;20.70;64.10;;;;;;20722274;28;20026;-64
2021/10/03 11:14:29;;;;;;;36.35;8.98;;;20.70;64.50;;;;;;20728609;28;20181;-64
2021/10/03 11:24:54;;;;;;;36.20;7.22;;;20.60;64.20;;;;;;20735997;23;20445;-60
2021/10/03 11:35:03;;;;;;;26.88;6.97;;;20.70;63.90;;;;;;20504799;28;20185;-59
2021/10/03 11:45:06;;;;;;;25.30;6.63;;;20.70;63.70;;;;;;20499552;28;20087;-59
2021/10/03 11:55:11;;;;;;;19.73;6.47;;;20.70;63.50;;;;;;20504435;29;20035;-59
2021/10/03 12:05:16;;;;;;;25.20;6.47;;;20.60;63.80;;;;;;20486714;28;20028;-60
2021/10/03 12:15:42;;;;;;;33.47;5.78;;;20.70;64.00;;;;;;20504299;28;20041;-59
2021/10/03 12:25:42;;;;;;;27.70;6.82;;;20.70;64.10;;;;;;20495071;28;20031;-60
2021/10/03 12:35:59;;;;;;;25.42;6.88;;;20.70;64.90;;;;;;20499818;28;20133;-59
2021/10/03 12:46:00;;;;;;;27.85;7.57;;;20.70;64.80;;;;;;20492635;28;20089;-59
2021/10/03 12:56:00;;;;;;;17.85;6.22;;;20.70;64.40;;;;;;20492008;28;20118;-60
2021/10/03 13:06:01;;;;;;;16.20;6.05;;;20.70;64.40;;;;;;20479782;28;20114;-59
2021/10/03 13:16:02;;;;;;;28.15;5.97;;;20.70;64.20;;;;;;20472754;28;20493;-62
2021/10/03 13:26:03;;;;;;;16.27;5.27;;;20.70;64.40;;;;;;20495967;28;20453;-60
2021/10/03 13:36:04;;;;;;;26.40;6.78;;;20.70;64.30;;;;;;20495698;28;20482;-60
2021/10/03 13:46:05;;;;;;;16.50;5.80;;;20.70;64.00;;;;;;20498882;28;20042;-57
2021/10/03 13:56:07;;;;;;;13.80;5.05;;;20.60;64.00;;;;;;20498982;28;20043;-56
2021/10/03 14:06:07;;;;;;;16.67;4.72;;;20.60;64.20;;;;;;20506585;28;20099;-58
2021/10/03 14:16:08;;;;;;;10.63;4.23;;;20.60;64.20;;;;;;20500622;28;20031;-60
2021/10/03 14:26:08;;;;;;;13.38;4.63;;;20.60;64.30;;;;;;20492964;28;20482;-59
2021/10/03 14:36:10;;;;;;;13.13;5.18;;;20.50;64.30;;;;;;20491951;28;20039;-60
2021/10/03 14:46:10;;;;;;;5.80;4.22;;;20.60;64.40;;;;;;20510174;28;20122;-58
2021/10/03 14:56:11;;;;;;;12.20;5.35;;;20.60;64.60;;;;;;20499650;28;20123;-59
2021/10/03 15:06:11;;;;;;;9.27;5.07;;;20.60;64.60;;;;;;20502956;28;20043;-57
2021/10/03 15:16:12;;;;;;;10.10;4.35;;;20.60;64.70;;;;;;20509371;28;20292;-56
2021/10/03 15:26:12;;;;;;;10.25;4.75;;;20.50;64.50;;;;;;20506658;28;20520;-58
2021/10/03 15:36:13;;;;;;;8.20;4.85;;;20.50;64.70;;;;;;20506003;28;20110;-58
2021/10/03 15:46:13;;;;;;;10.88;4.75;;;20.50;64.70;;;;;;20506046;28;20043;-57
2021/10/03 15:56:14;;;;;;;8.75;4.68;;;20.50;64.90;;;;;;20503778;28;20076;-59
2021/10/03 16:06:15;;;;;;;7.47;4.63;;;20.50;64.90;;;;;;20502462;28;20043;-60
2021/10/03 16:16:15;;;;;;;10.32;3.60;;;20.50;65.10;;;;;;20497413;28;20490;-59
2021/10/03 16:26:17;;;;;;;6.22;4.13;;;20.50;65.00;;;;;;20486134;28;20035;-58
2021/10/03 16:36:18;;;;;;;7.97;3.42;;;20.50;64.90;;;;;;20507854;28;20541;-58
2021/10/03 16:46:18;;;;;;;10.07;3.78;;;20.50;65.00;;;;;;20493952;28;20069;-57
2021/10/03 16:56:19;;;;;;;7.15;3.65;;;20.40;63.80;;;;;;20500473;28;20403;-57
2021/10/03 17:06:20;;;;;;;4.50;2.13;;;20.50;61.20;;;;;;20495133;28;20119;-57
2021/10/03 17:16:20;;;;;;;4.05;2.05;;;20.50;60.80;;;;;;20450482;28;20111;-58
2021/10/03 17:26:21;;;;;;;7.00;3.15;;;20.50;60.60;;;;;;20442921;28;20526;-60
2021/10/03 17:36:21;;;;;;;10.52;2.80;;;20.50;61.80;;;;;;20463264;29;20102;-59
2021/10/03 17:46:22;;;;;;;12.85;3.50;;;20.50;63.00;;;;;;20491263;29;20175;-59
2021/10/03 17:56:23;;;;;;;8.77;3.55;;;20.40;62.80;;;;;;20469840;28;20509;-59
2021/10/03 18:06:23;;;;;;;12.77;3.27;;;20.40;63.20;;;;;;20473622;29;20031;-59
2021/10/03 18:16:24;;;;;;;5.97;3.17;;;20.40;63.50;;;;;;20476180;28;21005;-59
2021/10/03 18:26:24;;;;;;;6.80;2.60;;;20.50;63.70;;;;;;20469252;28;20574;-57
2021/10/03 18:36:27;;;;;;;5.82;2.97;;;20.50;63.80;;;;;;20572757;28;21420;-60
2021/10/03 18:46:27;;;;;;;8.88;3.38;;;20.50;64.30;;;;;;20573051;28;20043;-60
2021/10/03 18:56:28;;;;;;;42.25;4.93;;;20.50;63.80;;;;;;20572783;28;20038;-59
2021/10/03 19:06:29;;;;;;;16.08;4.25;;;20.40;64.30;;;;;;20572806;28;20034;-59
2021/10/03 19:16:30;;;;;;;18.43;4.47;;;20.30;64.50;;;;;;20571349;28;20034;-60
2021/10/03 19:26:31;;;;;;;16.42;3.40;;;20.30;64.90;;;;;;20534060;28;20042;-60
2021/10/03 19:36:32;;;;;;;11.82;4.22;;;20.40;65.40;;;;;;20445684;28;20468;-57
2021/10/03 19:46:32;;;;;;;11.27;4.32;;;20.30;65.80;;;;;;20439076;28;20525;-58
2021/10/03 19:56:33;;;;;;;12.77;4.20;;;20.30;65.90;;;;;;20439486;29;20047;-60
2021/10/03 20:06:33;;;;;;;13.27;3.42;;;20.30;67.40;;;;;;20432692;28;20406;-61
2021/10/03 20:16:35;;;;;;;13.20;3.20;;;20.30;67.70;;;;;;20431324;28;20034;-60
2021/10/03 20:26:37;;;;;;;11.98;2.90;;;20.30;67.60;;;;;;20483153;28;20074;-61
2021/10/03 20:32:00;;;;;;;7.80;2.00;;;20.30;68.30;;;;;;2061168;27;20622;-59
2021/10/03 20:33:01;;;;;;;8.55;2.13;;;20.10;65.60;;;;;;2085909;28;20033;-59
2021/10/03 20:34:02;;;;;;;5.50;1.58;;;20.00;65.70;;;;;;2085510;28;20380;-57
2021/10/03 20:35:05;;;;;;;2.80;1.13;;;20.00;64.90;;;;;;2083369;28;20080;-57
2021/10/03 20:36:06;;;;;;;6.60;1.52;;;19.90;64.50;;;;;;2103838;28;20522;-55
2021/10/03 20:37:06;;;;;;;4.82;1.67;;;19.90;64.60;;;;;;2111348;28;20016;-56
2021/10/03 20:38:12;;;;;;;9.38;0.95;;;19.90;65.30;;;;;;2111490;28;20047;-59
2021/10/03 20:39:14;;;;;;;4.38;1.65;;;19.90;64.50;;;;;;2111391;28;20035;-57
2021/10/03 20:40:15;;;;;;;5.47;1.83;;;19.80;64.20;;;;;;2111434;28;20120;-59
2021/10/03 20:41:15;;;;;;;3.10;1.38;;;19.90;64.40;;;;;;2111419;28;20431;-58
2021/10/03 20:42:16;;;;;;;6.68;1.02;;;19.80;64.20;;;;;;2102322;28;20119;-57
2021/10/03 20:43:17;;;;;;;9.35;2.22;;;19.80;64.40;;;;;;2109284;28;20024;-59
2021/10/03 20:44:17;;;;;;;1.67;0.90;;;19.80;63.40;;;;;;2088436;28;20029;-57
2021/10/03 20:45:18;;;;;;;1.27;0.60;;;19.70;63.90;;;;;;2100515;28;20401;-57
2021/10/03 20:46:19;;;;;;;;;;;19.70;64.40;;;;;;2103582;28;20026;-60
2021/10/03 20:47:20;;;;;;;2.47;0.70;;;19.70;64.00;;;;;;2103009;28;20423;-60
2021/10/03 20:48:20;;;;;;;2.80;0.75;;;19.70;63.10;;;;;;2102991;28;20039;-60
2021/10/03 20:49:21;;;;;;;4.68;1.35;;;19.70;63.70;;;;;;2111468;28;20547;-60
2021/10/03 20:50:22;;;;;;;1.98;0.63;;;19.70;63.30;;;;;;2111450;28;20035;-60
2021/10/03 20:51:22;;;;;;;4.00;1.17;;;19.60;62.60;;;;;;2111308;28;20023;-60
2021/10/03 20:52:24;;;;;;;2.25;0.52;;;19.60;63.20;;;;;;2105636;28;20087;-59
2021/10/03 20:53:25;;;;;;;1.35;0.40;;;19.60;62.60;;;;;;2101420;28;20119;-60
2021/10/03 20:54:26;;;;;;;1.38;0.50;;;19.60;62.80;;;;;;2102719;28;20016;-60
2021/10/03 20:55:26;;;;;;;1.45;0.50;;;19.50;62.00;;;;;;2102868;28;20221;-60
2021/10/03 20:56:27;;;;;;;0.85;0.30;;;19.50;62.30;;;;;;2103203;28;20056;-60
2021/10/03 20:57:27;;;;;;;1.17;0.40;;;19.50;62.20;;;;;;2098555;28;20044;-59
2021/10/03 20:58:28;;;;;;;1.40;0.50;;;19.50;62.50;;;;;;2047798;28;20084;-61
2021/10/03 20:59:28;;;;;;;1.58;0.50;;;19.50;61.80;;;;;;2091208;28;20048;-61
2021/10/03 21:00:29;;;;;;;3.40;0.35;;;19.50;62.50;;;;;;2079255;28;20024;-61
2021/10/03 22:40:53;;;;;;;2.30;0.40;;;19.60;62.60;;;;;;208701646;27;68232;-61
